San Fermin Berria — EBVW — position and weather

sailwx.info

Track history (hours):
 
Tides and Currents Weather Stations Pressure Air Temp Water Temp Dewpoint Dewpoint Depression Visibility Wind Speed Wind Dir Waves Ship Positions

San Fermin Berria

Last reported at 2015-Mar-27 13:09 UTC. Time now 2015-Mar-28 11:03 UTC.
Position N 43°23' W 001°47'.

Length 30 m.

Type: Fishing. MMSI: 224114650.

Date/timePositionNaut miles runAvg speedWind from/ knotsBaromVisibWave heightAir tempDewpointWater temp
2015-Mar-27 13:09N 43°23' W 001°47'0 0.2
2015-Mar-27 12:33N 43°23' W 001°47'0 0.0
2015-Mar-27 11:33N 43°23' W 001°47'0 0.0
2015-Mar-27 10:34N 43°23' W 001°47'0 0.0
2015-Mar-27 09:33N 43°23' W 001°47'0 0.0
2015-Mar-27 08:33N 43°23' W 001°47'3 2.6
2015-Mar-27 07:33N 43°26' W 001°49'6 1.0
2015-Mar-27 01:24N 43°32' W 001°50'6 7.0
2015-Mar-27 00:33N 43°26' W 001°47'3 3.2
2015-Mar-26 23:33N 43°23' W 001°47'0 0.0
2015-Mar-26 22:33N 43°23' W 001°47'  
2015-Mar-24 07:24N 43°23' W 001°47'5 5.1
2015-Mar-24 06:29N 43°28' W 001°46'9 9.6
2015-Mar-24 05:33N 43°37' W 001°46'11 1.3
2015-Mar-23 21:18N 43°47' W 001°42'0 0.4
2015-Mar-23 20:32N 43°47' W 001°42'6 6.4
2015-Mar-23 19:33N 43°53' W 001°45'30 3.7
2015-Mar-23 11:18N 43°24' W 001°55'6 7.9
2015-Mar-23 10:33N 43°23' W 001°47'  
2015-Mar-20 04:33N 43°23' W 001°47'0 0.1
2015-Mar-20 03:33N 43°23' W 001°47'0 0.0
2015-Mar-20 02:33N 43°23' W 001°47'0 0.0
2015-Mar-20 01:33N 43°23' W 001°47'8 7.5
2015-Mar-20 00:33N 43°31' W 001°47'12 2.0
2015-Mar-19 18:21N 43°43' W 001°49'7 9.3
2015-Mar-19 17:33N 43°35' W 001°48'10 9.6
2015-Mar-19 16:33N 43°26' W 001°47'3 0.5
2015-Mar-19 11:10N 43°23' W 001°47'0 0.0
2015-Mar-19 10:33N 43°23' W 001°47'0 0.0
2015-Mar-19 09:33N 43°23' W 001°47'0 0.0
2015-Mar-19 08:33N 43°23' W 001°47'0 0.0
2015-Mar-19 07:33N 43°23' W 001°47'0 0.0
2015-Mar-19 06:33N 43°23' W 001°47'0 0.1
2015-Mar-19 05:33N 43°23' W 001°48'4 4.3
2015-Mar-19 04:33N 43°27' W 001°47'9 9.4
2015-Mar-19 03:33N 43°37' W 001°47'8 0.7
2015-Mar-18 16:33N 43°44' W 001°50'10 9.4
2015-Mar-18 15:32N 43°35' W 001°49'10 9.7
2015-Mar-18 14:33N 43°25' W 001°47'2 0.7
2015-Mar-18 11:33N 43°23' W 001°48'0 0.0
2015-Mar-18 10:33N 43°23' W 001°48'3 2.6
2015-Mar-18 09:33N 43°26' W 001°48'1010.2
2015-Mar-18 08:33N 43°36' W 001°50'  
Track history (hours):
 
Tides and Currents Weather Stations Pressure Air Temp Water Temp Dewpoint Dewpoint Depression Visibility Wind Speed Wind Dir Waves Ship Positions

San Fermin Berria

Last reported at 2015-Mar-27 13:09 UTC. Time now 2015-Mar-28 11:03 UTC.
Position N 43°23' W 001°47'.

Length 30 m.

Type: Fishing. MMSI: 224114650.

Date/timePositionNaut miles runAvg speedWind from/ knotsBaromVisibWave heightAir tempDewpointWater temp
2015-Mar-27 13:09N 43°23' W 001°47'0 0.2
2015-Mar-27 12:33N 43°23' W 001°47'0 0.0
2015-Mar-27 11:33N 43°23' W 001°47'0 0.0
2015-Mar-27 10:34N 43°23' W 001°47'0 0.0
2015-Mar-27 09:33N 43°23' W 001°47'0 0.0
2015-Mar-27 08:33N 43°23' W 001°47'3 2.6
2015-Mar-27 07:33N 43°26' W 001°49'6 1.0
2015-Mar-27 01:24N 43°32' W 001°50'6 7.0
2015-Mar-27 00:33N 43°26' W 001°47'3 3.2
2015-Mar-26 23:33N 43°23' W 001°47'0 0.0
2015-Mar-26 22:33N 43°23' W 001°47'  
2015-Mar-24 07:24N 43°23' W 001°47'5 5.1
2015-Mar-24 06:29N 43°28' W 001°46'9 9.6
2015-Mar-24 05:33N 43°37' W 001°46'11 1.3
2015-Mar-23 21:18N 43°47' W 001°42'0 0.4
2015-Mar-23 20:32N 43°47' W 001°42'6 6.4
2015-Mar-23 19:33N 43°53' W 001°45'30 3.7
2015-Mar-23 11:18N 43°24' W 001°55'6 7.9
2015-Mar-23 10:33N 43°23' W 001°47'  
2015-Mar-20 04:33N 43°23' W 001°47'0 0.1
2015-Mar-20 03:33N 43°23' W 001°47'0 0.0
2015-Mar-20 02:33N 43°23' W 001°47'0 0.0
2015-Mar-20 01:33N 43°23' W 001°47'8 7.5
2015-Mar-20 00:33N 43°31' W 001°47'12 2.0
2015-Mar-19 18:21N 43°43' W 001°49'7 9.3
2015-Mar-19 17:33N 43°35' W 001°48'10 9.6
2015-Mar-19 16:33N 43°26' W 001°47'3 0.5
2015-Mar-19 11:10N 43°23' W 001°47'0 0.0
2015-Mar-19 10:33N 43°23' W 001°47'0 0.0
2015-Mar-19 09:33N 43°23' W 001°47'0 0.0
2015-Mar-19 08:33N 43°23' W 001°47'0 0.0
2015-Mar-19 07:33N 43°23' W 001°47'0 0.0
2015-Mar-19 06:33N 43°23' W 001°47'0 0.1
2015-Mar-19 05:33N 43°23' W 001°48'4 4.3
2015-Mar-19 04:33N 43°27' W 001°47'9 9.4
2015-Mar-19 03:33N 43°37' W 001°47'8 0.7
2015-Mar-18 16:33N 43°44' W 001°50'10 9.4
2015-Mar-18 15:32N 43°35' W 001°49'10 9.7
2015-Mar-18 14:33N 43°25' W 001°47'2 0.7
2015-Mar-18 11:33N 43°23' W 001°48'0 0.0
2015-Mar-18 10:33N 43°23' W 001°48'3 2.6
2015-Mar-18 09:33N 43°26' W 001°48'1010.2
2015-Mar-18 08:33N 43°36' W 001°50'  

Dump ship's entire track history